Terminal Aerodrome Forecast
Issued by NWS Twin Cities, MN

Home | Current Version | Previous Version | Graphics & Text | Print | Product List | Glossary On
Versions: 1 2 3 4 5 6 7 8 9 10 11 12 13 14 15 16 17
000
FTUS43 KMPX 231737
TAFSTC
TAF
KSTC 231737Z 2318/2418 15015KT P6SM OVC040
     FM231900 15013KT P6SM VCSH OVC035
     FM232100 14010KT 4SM -SHRA OVC015
     FM240000 13008KT 2SM -SHRA OVC005
     FM240600 VRB03KT 2SM BR VCSH OVC005
     FM241100 02005KT 2SM BR VCSH OVC010
     FM241200 02006KT 4SM BR OVC008
     FM241700 02009KT P6SM OVC010=

USA.gov is the U.S. government's official web portal to all federal, state and local government web resources and services.